sensor_id;sensor_type;location;lat;lon;timestamp;pressure;altitude;pressure_sealevel;temperature;humidity
46045;BME280;31781;54.094;13.428;2023-10-13T00:02:00;101475.00;;;10.59;70.72
46045;BME280;31781;54.094;13.428;2023-10-13T00:04:05;101456.34;;;10.56;70.54
46045;BME280;31781;54.094;13.428;2023-10-13T00:06:08;101452.13;;;10.53;70.69
46045;BME280;31781;54.094;13.428;2023-10-13T00:08:11;101456.94;;;10.51;70.53
46045;BME280;31781;54.094;13.428;2023-10-13T00:10:13;101452.72;;;10.49;70.65
46045;BME280;31781;54.094;13.428;2023-10-13T00:12:21;101452.91;;;10.47;70.68
46045;BME280;31781;54.094;13.428;2023-10-13T00:14:24;101448.69;;;10.45;70.91
46045;BME280;31781;54.094;13.428;2023-10-13T00:16:28;101465.41;;;10.42;70.92
46045;BME280;31781;54.094;13.428;2023-10-13T00:18:32;101467.66;;;10.38;71.42
46045;BME280;31781;54.094;13.428;2023-10-13T00:20:34;101470.38;;;10.38;71.15
46045;BME280;31781;54.094;13.428;2023-10-13T00:22:37;101461.56;;;10.36;70.78
46045;BME280;31781;54.094;13.428;2023-10-13T00:24:41;101462.56;;;10.35;71.41
46045;BME280;31781;54.094;13.428;2023-10-13T00:26:43;101461.09;;;10.33;70.68
46045;BME280;31781;54.094;13.428;2023-10-13T00:28:44;101448.50;;;10.32;71.47
46045;BME280;31781;54.094;13.428;2023-10-13T00:30:48;101449.75;;;10.29;71.36
46045;BME280;31781;54.094;13.428;2023-10-13T00:32:51;101443.47;;;10.29;71.47
46045;BME280;31781;54.094;13.428;2023-10-13T00:34:52;101443.66;;;10.27;71.49
46045;BME280;31781;54.094;13.428;2023-10-13T00:36:54;101437.56;;;10.25;70.88
46045;BME280;31781;54.094;13.428;2023-10-13T00:39:10;101445.94;;;10.23;71.07
46045;BME280;31781;54.094;13.428;2023-10-13T00:41:16;101442.53;;;10.21;71.22
46045;BME280;31781;54.094;13.428;2023-10-13T00:43:51;101442.72;;;10.20;70.08
46045;BME280;31781;54.094;13.428;2023-10-13T00:51:43;101440.72;;;10.14;71.06
46045;BME280;31781;54.094;13.428;2023-10-13T00:54:01;101432.94;;;10.11;71.50
46045;BME280;31781;54.094;13.428;2023-10-13T00:56:04;101435.00;;;10.09;71.40
46045;BME280;31781;54.094;13.428;2023-10-13T00:58:07;101427.06;;;10.07;71.18
46045;BME280;31781;54.094;13.428;2023-10-13T01:00:22;101436.44;;;10.05;71.19
46045;BME280;31781;54.094;13.428;2023-10-13T01:02:25;101432.03;;;10.04;71.00
46045;BME280;31781;54.094;13.428;2023-10-13T01:04:27;101437.84;;;10.01;71.07
46045;BME280;31781;54.094;13.428;2023-10-13T01:06:30;101429.88;;;9.99;71.59
46045;BME280;31781;54.094;13.428;2023-10-13T01:08:34;101428.38;;;9.97;71.34
46045;BME280;31781;54.094;13.428;2023-10-13T01:10:37;101432.13;;;9.96;71.43
46045;BME280;31781;54.094;13.428;2023-10-13T01:12:39;101431.47;;;9.94;71.54
46045;BME280;31781;54.094;13.428;2023-10-13T01:14:43;101430.81;;;9.92;71.46
46045;BME280;31781;54.094;13.428;2023-10-13T01:16:47;101426.38;;;9.91;71.86
46045;BME280;31781;54.094;13.428;2023-10-13T01:18:49;101434.75;;;9.89;71.90
46045;BME280;31781;54.094;13.428;2023-10-13T01:20:51;101429.50;;;9.88;71.92
46045;BME280;31781;54.094;13.428;2023-10-13T01:22:55;101430.50;;;9.87;72.34
46045;BME280;31781;54.094;13.428;2023-10-13T01:25:00;101419.84;;;9.85;72.13
46045;BME280;31781;54.094;13.428;2023-10-13T01:27:04;101418.16;;;9.84;72.17
46045;BME280;31781;54.094;13.428;2023-10-13T01:29:06;101416.28;;;9.85;72.81
46045;BME280;31781;54.094;13.428;2023-10-13T01:31:16;101405.41;;;9.85;72.90
46045;BME280;31781;54.094;13.428;2023-10-13T01:33:23;101399.97;;;9.85;73.22
46045;BME280;31781;54.094;13.428;2023-10-13T01:35:33;101399.81;;;9.86;72.95
46045;BME280;31781;54.094;13.428;2023-10-13T01:37:35;101407.09;;;9.86;72.60
46045;BME280;31781;54.094;13.428;2023-10-13T01:39:38;101408.78;;;9.87;72.18
46045;BME280;31781;54.094;13.428;2023-10-13T01:41:42;101412.53;;;9.86;72.11
46045;BME280;31781;54.094;13.428;2023-10-13T01:43:44;101417.97;;;9.86;72.06
46045;BME280;31781;54.094;13.428;2023-10-13T01:45:48;101427.16;;;9.85;72.13
46045;BME280;31781;54.094;13.428;2023-10-13T01:47:51;101410.22;;;9.83;72.46
46045;BME280;31781;54.094;13.428;2023-10-13T01:49:54;101406.63;;;9.82;72.84
46045;BME280;31781;54.094;13.428;2023-10-13T01:51:56;101409.34;;;9.82;72.25
46045;BME280;31781;54.094;13.428;2023-10-13T01:53:58;101407.50;;;9.83;72.29
46045;BME280;31781;54.094;13.428;2023-10-13T01:55:59;101405.59;;;9.83;72.31
46045;BME280;31781;54.094;13.428;2023-10-13T01:58:04;101409.53;;;9.81;72.50
46045;BME280;31781;54.094;13.428;2023-10-13T02:00:08;101408.50;;;9.82;71.88
46045;BME280;31781;54.094;13.428;2023-10-13T02:02:10;101395.78;;;9.82;72.81
46045;BME280;31781;54.094;13.428;2023-10-13T02:04:12;101405.78;;;9.82;72.56
46045;BME280;31781;54.094;13.428;2023-10-13T02:06:14;101396.78;;;9.81;72.87
46045;BME280;31781;54.094;13.428;2023-10-13T02:08:16;101393.22;;;9.81;72.76
46045;BME280;31781;54.094;13.428;2023-10-13T02:10:21;101404.78;;;9.83;73.23
46045;BME280;31781;54.094;13.428;2023-10-13T02:12:28;101393.22;;;9.81;73.05
46045;BME280;31781;54.094;13.428;2023-10-13T02:14:32;101401.22;;;9.82;72.97
46045;BME280;31781;54.094;13.428;2023-10-13T02:16:34;101400.53;;;9.80;73.30
46045;BME280;31781;54.094;13.428;2023-10-13T02:18:36;101400.16;;;9.83;73.34
46045;BME280;31781;54.094;13.428;2023-10-13T02:20:38;101396.41;;;9.84;73.49
46045;BME280;31781;54.094;13.428;2023-10-13T02:22:41;101390.81;;;9.86;73.56
46045;BME280;31781;54.094;13.428;2023-10-13T02:24:43;101387.03;;;9.87;74.26
46045;BME280;31781;54.094;13.428;2023-10-13T02:26:45;101381.25;;;9.90;73.85
46045;BME280;31781;54.094;13.428;2023-10-13T02:28:47;101384.59;;;9.92;73.51
46045;BME280;31781;54.094;13.428;2023-10-13T02:30:50;101375.22;;;9.94;73.72
46045;BME280;31781;54.094;13.428;2023-10-13T02:32:52;101374.84;;;9.97;74.06
46045;BME280;31781;54.094;13.428;2023-10-13T02:34:57;101375.50;;;9.99;74.21
46045;BME280;31781;54.094;13.428;2023-10-13T02:37:00;101372.38;;;10.02;74.11
46045;BME280;31781;54.094;13.428;2023-10-13T02:39:04;101369.09;;;10.07;74.18
46045;BME280;31781;54.094;13.428;2023-10-13T02:41:10;101368.72;;;10.10;73.91
46045;BME280;31781;54.094;13.428;2023-10-13T02:43:12;101367.53;;;10.12;74.08
46045;BME280;31781;54.094;13.428;2023-10-13T02:45:14;101362.75;;;10.14;73.59
46045;BME280;31781;54.094;13.428;2023-10-13T02:47:17;101359.84;;;10.16;73.88
46045;BME280;31781;54.094;13.428;2023-10-13T02:49:19;101350.63;;;10.17;74.11
46045;BME280;31781;54.094;13.428;2023-10-13T02:51:21;101358.41;;;10.20;73.94
46045;BME280;31781;54.094;13.428;2023-10-13T02:53:23;101353.81;;;10.20;74.38
46045;BME280;31781;54.094;13.428;2023-10-13T02:55:26;101362.44;;;10.24;73.96
46045;BME280;31781;54.094;13.428;2023-10-13T02:57:28;101354.94;;;10.26;74.57
46045;BME280;31781;54.094;13.428;2023-10-13T02:59:30;101347.25;;;10.30;74.18
46045;BME280;31781;54.094;13.428;2023-10-13T03:01:32;101352.28;;;10.33;74.46
46045;BME280;31781;54.094;13.428;2023-10-13T03:03:36;101343.56;;;10.37;73.99
46045;BME280;31781;54.094;13.428;2023-10-13T03:05:38;101348.59;;;10.40;74.11
46045;BME280;31781;54.094;13.428;2023-10-13T03:07:41;101332.09;;;10.42;74.27
46045;BME280;31781;54.094;13.428;2023-10-13T03:09:43;101331.72;;;10.45;73.89
46045;BME280;31781;54.094;13.428;2023-10-13T03:11:45;101329.44;;;10.48;74.06
46045;BME280;31781;54.094;13.428;2023-10-13T03:13:48;101322.97;;;10.49;73.63
46045;BME280;31781;54.094;13.428;2023-10-13T03:15:54;101320.03;;;10.51;73.76
46045;BME280;31781;54.094;13.428;2023-10-13T03:17:59;101320.69;;;10.53;74.00
46045;BME280;31781;54.094;13.428;2023-10-13T03:20:07;101305.84;;;10.55;74.08
46045;BME280;31781;54.094;13.428;2023-10-13T03:22:29;101311.94;;;10.57;73.94
46045;BME280;31781;54.094;13.428;2023-10-13T03:24:31;101310.72;;;10.60;73.98
46045;BME280;31781;54.094;13.428;2023-10-13T03:26:33;101309.47;;;10.62;74.32
46045;BME280;31781;54.094;13.428;2023-10-13T03:28:35;101296.50;;;10.64;74.07
46045;BME280;31781;54.094;13.428;2023-10-13T03:30:37;101289.00;;;10.66;74.10
46045;BME280;31781;54.094;13.428;2023-10-13T03:32:39;101296.75;;;10.69;73.92
46045;BME280;31781;54.094;13.428;2023-10-13T03:34:41;101289.25;;;10.71;74.35
46045;BME280;31781;54.094;13.428;2023-10-13T03:36:44;101285.28;;;10.74;74.19
46045;BME280;31781;54.094;13.428;2023-10-13T03:38:50;101286.78;;;10.77;74.31
46045;BME280;31781;54.094;13.428;2023-10-13T03:40:52;101271.09;;;10.79;73.90
46045;BME280;31781;54.094;13.428;2023-10-13T03:42:55;101261.88;;;10.80;73.79
46045;BME280;31781;54.094;13.428;2023-10-13T03:44:57;101255.22;;;10.82;74.48
46045;BME280;31781;54.094;13.428;2023-10-13T03:46:59;101257.53;;;10.85;74.20
46045;BME280;31781;54.094;13.428;2023-10-13T03:49:05;101254.41;;;10.88;74.09
46045;BME280;31781;54.094;13.428;2023-10-13T03:51:07;101247.72;;;10.91;73.96
46045;BME280;31781;54.094;13.428;2023-10-13T03:53:11;101244.63;;;10.94;74.40
46045;BME280;31781;54.094;13.428;2023-10-13T03:55:13;101231.63;;;10.96;74.39
46045;BME280;31781;54.094;13.428;2023-10-13T03:57:15;101228.50;;;10.99;74.47
46045;BME280;31781;54.094;13.428;2023-10-13T03:59:19;101232.69;;;11.01;74.25
46045;BME280;31781;54.094;13.428;2023-10-13T04:01:23;101221.44;;;11.04;74.11
46045;BME280;31781;54.094;13.428;2023-10-13T04:03:25;101216.44;;;11.08;74.30
46045;BME280;31781;54.094;13.428;2023-10-13T04:05:26;101212.63;;;11.09;73.85
46045;BME280;31781;54.094;13.428;2023-10-13T04:07:28;101209.31;;;11.13;73.75
46045;BME280;31781;54.094;13.428;2023-10-13T04:17:38;101191.16;;;11.27;73.65
46045;BME280;31781;54.094;13.428;2023-10-13T04:19:41;101195.38;;;11.30;73.59
46045;BME280;31781;54.094;13.428;2023-10-13T04:21:43;101200.59;;;11.31;73.45
46045;BME280;31781;54.094;13.428;2023-10-13T04:23:47;101185.53;;;11.35;73.60
46045;BME280;31781;54.094;13.428;2023-10-13T04:25:49;101187.22;;;11.36;73.41
46045;BME280;31781;54.094;13.428;2023-10-13T04:27:53;101183.06;;;11.40;73.56
46045;BME280;31781;54.094;13.428;2023-10-13T04:29:56;101184.50;;;11.43;73.58
46045;BME280;31781;54.094;13.428;2023-10-13T04:31:58;101174.28;;;11.45;73.80
46045;BME280;31781;54.094;13.428;2023-10-13T04:34:16;101162.53;;;11.51;73.12
46045;BME280;31781;54.094;13.428;2023-10-13T04:36:32;101151.44;;;11.52;74.26
46045;BME280;31781;54.094;13.428;2023-10-13T04:38:37;101159.22;;;11.55;74.34
46045;BME280;31781;54.094;13.428;2023-10-13T04:40:41;101156.91;;;11.59;74.93
46045;BME280;31781;54.094;13.428;2023-10-13T04:42:46;101153.16;;;11.60;74.98
46045;BME280;31781;54.094;13.428;2023-10-13T04:45:10;101155.03;;;11.66;74.36
46045;BME280;31781;54.094;13.428;2023-10-13T04:47:14;101150.22;;;11.68;74.95
46045;BME280;31781;54.094;13.428;2023-10-13T04:54:52;101137.91;;;11.79;75.37
46045;BME280;31781;54.094;13.428;2023-10-13T04:57:08;101133.94;;;11.81;75.70
46045;BME280;31781;54.094;13.428;2023-10-13T04:59:19;101125.53;;;11.83;75.39
46045;BME280;31781;54.094;13.428;2023-10-13T05:01:21;101118.00;;;11.85;75.75
46045;BME280;31781;54.094;13.428;2023-10-13T05:03:25;101102.47;;;11.85;75.46
46045;BME280;31781;54.094;13.428;2023-10-13T05:05:27;101102.06;;;11.88;76.05
46045;BME280;31781;54.094;13.428;2023-10-13T05:07:30;101099.13;;;11.90;76.07
46045;BME280;31781;54.094;13.428;2023-10-13T05:09:34;101095.13;;;11.92;76.45
46045;BME280;31781;54.094;13.428;2023-10-13T05:11:39;101087.38;;;11.96;76.25
46045;BME280;31781;54.094;13.428;2023-10-13T05:14:01;101089.88;;;11.97;76.32
46045;BME280;31781;54.094;13.428;2023-10-13T05:16:04;101089.47;;;12.00;76.93
46045;BME280;31781;54.094;13.428;2023-10-13T05:18:06;101084.63;;;12.02;76.60
46045;BME280;31781;54.094;13.428;2023-10-13T05:20:09;101079.84;;;12.04;77.09
46045;BME280;31781;54.094;13.428;2023-10-13T05:22:11;101083.38;;;12.05;77.19
46045;BME280;31781;54.094;13.428;2023-10-13T05:24:15;101084.84;;;12.07;76.75
46045;BME280;31781;54.094;13.428;2023-10-13T05:26:17;101084.84;;;12.07;77.06
46045;BME280;31781;54.094;13.428;2023-10-13T05:28:20;101077.09;;;12.11;76.80
46045;BME280;31781;54.094;13.428;2023-10-13T05:30:36;101076.06;;;12.12;77.27
46045;BME280;31781;54.094;13.428;2023-10-13T05:32:39;101066.59;;;12.14;76.99
46045;BME280;31781;54.094;13.428;2023-10-13T05:34:44;101062.81;;;12.15;76.94
46045;BME280;31781;54.094;13.428;2023-10-13T05:36:48;101069.94;;;12.16;77.52
46045;BME280;31781;54.094;13.428;2023-10-13T05:38:50;101065.31;;;12.17;76.92
46045;BME280;31781;54.094;13.428;2023-10-13T05:40:59;101068.06;;;12.17;77.66
46045;BME280;31781;54.094;13.428;2023-10-13T05:43:03;101063.25;;;12.19;77.42
46045;BME280;31781;54.094;13.428;2023-10-13T05:45:09;101052.94;;;12.21;76.94
46045;BME280;31781;54.094;13.428;2023-10-13T05:47:11;101056.50;;;12.22;77.15
46045;BME280;31781;54.094;13.428;2023-10-13T05:49:23;101046.22;;;12.24;76.69
46045;BME280;31781;54.094;13.428;2023-10-13T05:51:25;101042.66;;;12.23;76.98
46045;BME280;31781;54.094;13.428;2023-10-13T05:53:29;101032.56;;;12.24;77.67
46045;BME280;31781;54.094;13.428;2023-10-13T05:55:33;101028.81;;;12.25;77.44
46045;BME280;31781;54.094;13.428;2023-10-13T05:57:36;101013.47;;;12.24;77.60
46045;BME280;31781;54.094;13.428;2023-10-13T05:59:38;101020.41;;;12.26;77.38
46045;BME280;31781;54.094;13.428;2023-10-13T06:01:41;101011.16;;;12.27;77.32
46045;BME280;31781;54.094;13.428;2023-10-13T06:03:44;101014.53;;;12.29;77.52
46045;BME280;31781;54.094;13.428;2023-10-13T06:05:48;101015.38;;;12.30;77.85
46045;BME280;31781;54.094;13.428;2023-10-13T06:07:54;101008.03;;;12.30;78.19
46045;BME280;31781;54.094;13.428;2023-10-13T06:09:57;101007.59;;;12.33;77.93
46045;BME280;31781;54.094;13.428;2023-10-13T06:12:00;101011.97;;;12.34;78.17
46045;BME280;31781;54.094;13.428;2023-10-13T06:14:02;101012.63;;;12.36;78.55
46045;BME280;31781;54.094;13.428;2023-10-13T06:16:07;101006.97;;;12.38;78.34
46045;BME280;31781;54.094;13.428;2023-10-13T06:18:10;101005.88;;;12.39;78.62
46045;BME280;31781;54.094;13.428;2023-10-13T06:20:15;101007.38;;;12.41;78.65
46045;BME280;31781;54.094;13.428;2023-10-13T06:22:17;101015.97;;;12.45;78.73
46045;BME280;31781;54.094;13.428;2023-10-13T06:24:19;101011.31;;;12.45;78.74
46045;BME280;31781;54.094;13.428;2023-10-13T06:26:23;101003.56;;;12.49;78.93
46045;BME280;31781;54.094;13.428;2023-10-13T06:28:27;101008.59;;;12.52;78.96
46045;BME280;31781;54.094;13.428;2023-10-13T06:30:29;100996.59;;;12.53;79.18
46045;BME280;31781;54.094;13.428;2023-10-13T06:32:37;100993.47;;;12.56;78.89
46045;BME280;31781;54.094;13.428;2023-10-13T06:34:42;101009.41;;;12.59;79.32
46045;BME280;31781;54.094;13.428;2023-10-13T06:36:50;100999.09;;;12.61;79.18
46045;BME280;31781;54.094;13.428;2023-10-13T06:38:52;100986.91;;;12.63;79.47
46045;BME280;31781;54.094;13.428;2023-10-13T06:40:54;100982.06;;;12.65;79.63
46045;BME280;31781;54.094;13.428;2023-10-13T06:42:56;100977.22;;;12.67;79.72
46045;BME280;31781;54.094;13.428;2023-10-13T06:45:04;100980.13;;;12.73;79.12
46045;BME280;31781;54.094;13.428;2023-10-13T06:47:26;100970.91;;;12.74;79.76
46045;BME280;31781;54.094;13.428;2023-10-13T06:49:28;100976.13;;;12.75;79.85
46045;BME280;31781;54.094;13.428;2023-10-13T06:51:32;100971.91;;;12.79;80.12
46045;BME280;31781;54.094;13.428;2023-10-13T06:53:34;100971.50;;;12.82;80.10
46045;BME280;31781;54.094;13.428;2023-10-13T06:55:37;100960.13;;;12.85;80.32
46045;BME280;31781;54.094;13.428;2023-10-13T06:57:38;100966.00;;;12.89;80.19
46045;BME280;31781;54.094;13.428;2023-10-13T06:59:40;100955.69;;;12.91;80.12
46045;BME280;31781;54.094;13.428;2023-10-13T07:01:42;100950.59;;;12.94;80.52
46045;BME280;31781;54.094;13.428;2023-10-13T07:03:48;100954.56;;;12.98;80.46
46045;BME280;31781;54.094;13.428;2023-10-13T07:05:50;100957.94;;;13.00;80.67
46045;BME280;31781;54.094;13.428;2023-10-13T07:07:56;100956.66;;;13.03;80.08
46045;BME280;31781;54.094;13.428;2023-10-13T07:10:00;100961.47;;;13.07;80.58
46045;BME280;31781;54.094;13.428;2023-10-13T07:12:10;100942.78;;;13.11;80.88
46045;BME280;31781;54.094;13.428;2023-10-13T07:14:12;100941.28;;;13.15;81.05
46045;BME280;31781;54.094;13.428;2023-10-13T07:16:13;100942.72;;;13.18;81.68
46045;BME280;31781;54.094;13.428;2023-10-13T07:18:30;100937.66;;;13.21;81.75
46045;BME280;31781;54.094;13.428;2023-10-13T07:20:32;100947.09;;;13.25;81.71
46045;BME280;31781;54.094;13.428;2023-10-13T07:22:35;100942.84;;;13.29;82.07
46045;BME280;31781;54.094;13.428;2023-10-13T07:24:39;100938.63;;;13.33;82.13
46045;BME280;31781;54.094;13.428;2023-10-13T07:26:41;100940.06;;;13.36;82.33
46045;BME280;31781;54.094;13.428;2023-10-13T07:28:45;100944.88;;;13.40;82.47
46045;BME280;31781;54.094;13.428;2023-10-13T07:30:47;100934.31;;;13.44;82.64
46045;BME280;31781;54.094;13.428;2023-10-13T07:32:49;100938.28;;;13.48;82.16
46045;BME280;31781;54.094;13.428;2023-10-13T07:34:52;100943.09;;;13.52;82.54
46045;BME280;31781;54.094;13.428;2023-10-13T07:36:54;100930.63;;;13.56;82.14
46045;BME280;31781;54.094;13.428;2023-10-13T07:38:59;100928.25;;;13.60;82.49
46045;BME280;31781;54.094;13.428;2023-10-13T07:41:22;100926.75;;;13.64;82.62
46045;BME280;31781;54.094;13.428;2023-10-13T07:43:24;100932.63;;;13.68;82.74
46045;BME280;31781;54.094;13.428;2023-10-13T07:45:26;100929.22;;;13.72;82.50
46045;BME280;31781;54.094;13.428;2023-10-13T07:47:28;100923.28;;;13.75;82.66
46045;BME280;31781;54.094;13.428;2023-10-13T07:49:36;100918.19;;;13.79;83.16
46045;BME280;31781;54.094;13.428;2023-10-13T07:51:38;100923.25;;;13.82;82.61
46045;BME280;31781;54.094;13.428;2023-10-13T07:53:40;100923.00;;;13.83;83.20
46045;BME280;31781;54.094;13.428;2023-10-13T07:55:42;100919.81;;;13.86;82.93
46045;BME280;31781;54.094;13.428;2023-10-13T07:57:48;100914.97;;;13.88;83.31
46045;BME280;31781;54.094;13.428;2023-10-13T07:59:50;100908.19;;;13.91;82.90
46045;BME280;31781;54.094;13.428;2023-10-13T08:01:52;100907.97;;;13.92;82.93
46045;BME280;31781;54.094;13.428;2023-10-13T08:03:54;100907.75;;;13.94;82.87
46045;BME280;31781;54.094;13.428;2023-10-13T08:05:56;100901.22;;;13.95;83.57
46045;BME280;31781;54.094;13.428;2023-10-13T08:07:58;100891.69;;;13.97;83.16
46045;BME280;31781;54.094;13.428;2023-10-13T08:10:00;100886.84;;;13.99;83.67
46045;BME280;31781;54.094;13.428;2023-10-13T08:12:11;100884.72;;;14.01;82.91
46045;BME280;31781;54.094;13.428;2023-10-13T08:14:35;100875.66;;;14.01;83.63
46045;BME280;31781;54.094;13.428;2023-10-13T08:17:08;100887.81;;;14.05;83.76
46045;BME280;31781;54.094;13.428;2023-10-13T08:19:12;100880.25;;;14.07;84.06
46045;BME280;31781;54.094;13.428;2023-10-13T08:21:16;100886.31;;;14.09;84.46
46045;BME280;31781;54.094;13.428;2023-10-13T08:23:21;100877.63;;;14.12;84.42
46045;BME280;31781;54.094;13.428;2023-10-13T08:25:24;100873.63;;;14.14;84.24
46045;BME280;31781;54.094;13.428;2023-10-13T08:27:27;100865.78;;;14.18;84.51
46045;BME280;31781;54.094;13.428;2023-10-13T08:29:31;100854.38;;;14.21;84.58
46045;BME280;31781;54.094;13.428;2023-10-13T08:31:35;100864.88;;;14.24;84.78
46045;BME280;31781;54.094;13.428;2023-10-13T08:33:37;100852.63;;;14.27;84.71
46045;BME280;31781;54.094;13.428;2023-10-13T08:35:39;100852.97;;;14.30;85.39
46045;BME280;31781;54.094;13.428;2023-10-13T08:37:41;100853.59;;;14.32;85.42
46045;BME280;31781;54.094;13.428;2023-10-13T08:39:46;100847.47;;;14.37;85.25
46045;BME280;31781;54.094;13.428;2023-10-13T08:41:50;100841.53;;;14.40;85.38
46045;BME280;31781;54.094;13.428;2023-10-13T08:43:55;100837.50;;;14.42;85.54
46045;BME280;31781;54.094;13.428;2023-10-13T08:46:03;100835.97;;;14.46;85.28
46045;BME280;31781;54.094;13.428;2023-10-13T08:48:08;100827.28;;;14.49;85.76
46045;BME280;31781;54.094;13.428;2023-10-13T08:50:11;100823.00;;;14.53;85.94
46045;BME280;31781;54.094;13.428;2023-10-13T08:52:14;100816.00;;;14.57;86.34
46045;BME280;31781;54.094;13.428;2023-10-13T08:54:17;100814.47;;;14.61;86.46
46045;BME280;31781;54.094;13.428;2023-10-13T08:56:21;100812.94;;;14.66;86.54
46045;BME280;31781;54.094;13.428;2023-10-13T08:58:25;100806.75;;;14.70;86.67
46045;BME280;31781;54.094;13.428;2023-10-13T09:00:26;100800.56;;;14.75;86.80
46045;BME280;31781;54.094;13.428;2023-10-13T09:02:29;100803.66;;;14.78;87.61
46045;BME280;31781;54.094;13.428;2023-10-13T09:04:47;100787.13;;;14.85;86.31
46045;BME280;31781;54.094;13.428;2023-10-13T09:06:50;100799.28;;;14.89;87.32
46045;BME280;31781;54.094;13.428;2023-10-13T09:08:52;100797.72;;;14.93;87.35
46045;BME280;31781;54.094;13.428;2023-10-13T09:10:57;100792.38;;;14.98;87.52
46045;BME280;31781;54.094;13.428;2023-10-13T09:12:59;100781.78;;;15.01;87.45
46045;BME280;31781;54.094;13.428;2023-10-13T09:15:04;100770.13;;;15.06;87.63
46045;BME280;31781;54.094;13.428;2023-10-13T09:17:06;100773.00;;;15.11;87.36
46045;BME280;31781;54.094;13.428;2023-10-13T09:19:08;100768.66;;;15.15;87.45
46045;BME280;31781;54.094;13.428;2023-10-13T09:21:15;100762.47;;;15.20;87.20
46045;BME280;31781;54.094;13.428;2023-10-13T09:23:17;100761.19;;;15.22;88.05
46045;BME280;31781;54.094;13.428;2023-10-13T09:25:22;100760.44;;;15.27;87.40
46045;BME280;31781;54.094;13.428;2023-10-13T09:27:25;100752.56;;;15.30;87.44
46045;BME280;31781;54.094;13.428;2023-10-13T09:29:27;100753.78;;;15.34;87.33
46045;BME280;31781;54.094;13.428;2023-10-13T09:31:33;100747.56;;;15.39;87.45
46045;BME280;31781;54.094;13.428;2023-10-13T09:33:36;100744.34;;;15.42;87.75
46045;BME280;31781;54.094;13.428;2023-10-13T09:35:38;100740.88;;;15.46;87.82
46045;BME280;31781;54.094;13.428;2023-10-13T09:37:42;100738.53;;;15.50;87.69
46045;BME280;31781;54.094;13.428;2023-10-13T09:39:44;100736.97;;;15.54;87.57
46045;BME280;31781;54.094;13.428;2023-10-13T09:41:47;100727.41;;;15.56;87.50
46045;BME280;31781;54.094;13.428;2023-10-13T09:43:51;100732.41;;;15.59;87.71
46045;BME280;31781;54.094;13.428;2023-10-13T09:45:59;100729.78;;;15.65;87.41
46045;BME280;31781;54.094;13.428;2023-10-13T09:48:02;100731.47;;;15.66;87.21
46045;BME280;31781;54.094;13.428;2023-10-13T09:50:08;100728.22;;;15.69;87.44
46045;BME280;31781;54.094;13.428;2023-10-13T09:52:16;100723.31;;;15.71;86.82
46045;BME280;31781;54.094;13.428;2023-10-13T09:54:37;100719.28;;;15.73;86.75
46045;BME280;31781;54.094;13.428;2023-10-13T09:57:05;100713.31;;;15.76;86.58
46045;BME280;31781;54.094;13.428;2023-10-13T09:59:19;100704.84;;;15.78;87.06
46045;BME280;31781;54.094;13.428;2023-10-13T10:01:24;100707.94;;;15.81;87.23
46045;BME280;31781;54.094;13.428;2023-10-13T10:03:34;100691.19;;;15.83;87.40
46045;BME280;31781;54.094;13.428;2023-10-13T10:05:54;100682.25;;;15.87;86.43
46045;BME280;31781;54.094;13.428;2023-10-13T10:07:57;100675.69;;;15.88;87.87
46045;BME280;31781;54.094;13.428;2023-10-13T10:10:01;100666.13;;;15.91;87.88
46045;BME280;31781;54.094;13.428;2023-10-13T10:12:18;100655.81;;;15.98;86.71
46045;BME280;31781;54.094;13.428;2023-10-13T10:14:35;100646.25;;;16.00;87.58
46045;BME280;31781;54.094;13.428;2023-10-13T10:16:47;100651.28;;;16.03;87.65
46045;BME280;31781;54.094;13.428;2023-10-13T10:18:59;100642.28;;;16.08;87.35
46045;BME280;31781;54.094;13.428;2023-10-13T10:21:05;100629.16;;;16.10;87.72
46045;BME280;31781;54.094;13.428;2023-10-13T10:23:09;100623.16;;;16.13;88.24
46045;BME280;31781;54.094;13.428;2023-10-13T10:25:12;100622.41;;;16.18;87.78
46045;BME280;31781;54.094;13.428;2023-10-13T10:27:24;100622.25;;;16.24;87.68
46045;BME280;31781;54.094;13.428;2023-10-13T10:29:25;100603.59;;;16.26;88.56
46045;BME280;31781;54.094;13.428;2023-10-13T10:31:31;100621.00;;;16.32;88.60
46045;BME280;31781;54.094;13.428;2023-10-13T10:33:33;100612.25;;;16.35;88.83
46045;BME280;31781;54.094;13.428;2023-10-13T10:35:35;100612.59;;;16.38;88.33
46045;BME280;31781;54.094;13.428;2023-10-13T10:37:40;100607.44;;;16.42;88.55
46045;BME280;31781;54.094;13.428;2023-10-13T10:39:43;100614.09;;;16.46;88.47
46045;BME280;31781;54.094;13.428;2023-10-13T10:41:46;100610.00;;;16.48;88.55
46045;BME280;31781;54.094;13.428;2023-10-13T10:43:57;100594.69;;;16.52;88.32
46045;BME280;31781;54.094;13.428;2023-10-13T10:46:00;100604.34;;;16.55;87.72
46045;BME280;31781;54.094;13.428;2023-10-13T10:48:07;100595.03;;;16.56;87.82
46045;BME280;31781;54.094;13.428;2023-10-13T10:50:27;100594.28;;;16.61;88.02
46045;BME280;31781;54.094;13.428;2023-10-13T10:52:31;100579.72;;;16.60;87.87
46045;BME280;31781;54.094;13.428;2023-10-13T10:54:33;100575.38;;;16.64;88.02
46045;BME280;31781;54.094;13.428;2023-10-13T10:56:37;100580.38;;;16.67;87.97
46045;BME280;31781;54.094;13.428;2023-10-13T11:01:42;100565.03;;;16.71;87.73
46045;BME280;31781;54.094;13.428;2023-10-13T11:04:08;100548.88;;;16.75;86.44
46045;BME280;31781;54.094;13.428;2023-10-13T11:06:13;100546.41;;;16.73;87.86
46045;BME280;31781;54.094;13.428;2023-10-13T11:08:29;100547.81;;;16.76;87.35